Time;durP1;ratioP1;P1;durP2;ratioP2;P2;SDS_P1;SDS_P2;PMS_P1;PMS_P2;Temp;Humidity;BMP_temperature;BMP_pressure;BME280_temperature;BME280_humidity;BME280_pressure;Samples;Min_cycle;Max_cycle;Signal;HPM_P1;HPM_P2
2021/06/14 00:01:35;;;;;;;8.40;3.33;;;;;;;;;;6191677;23;20175;-89
2021/06/14 00:04:39;;;;;;;9.77;3.60;;;;;;;;;;6191757;23;20187;-91
2021/06/14 00:07:45;;;;;;;7.80;3.35;;;;;;;;;;6191289;23;20194;-89
2021/06/14 00:10:51;;;;;;;11.70;3.60;;;;;;;;;;6191433;23;20220;-88
2021/06/14 00:13:58;;;;;;;8.88;3.55;;;;;;;;;;6190376;23;20172;-88
2021/06/14 00:17:03;;;;;;;10.50;3.25;;;;;;;;;;6191542;23;20187;-88
2021/06/14 00:20:09;;;;;;;7.35;3.38;;;;;;;;;;6191119;22;20172;-89
2021/06/14 00:23:15;;;;;;;11.43;3.83;;;;;;;;;;6191599;23;20156;-90
2021/06/14 00:26:20;;;;;;;6.90;3.50;;;;;;;;;;6191555;23;20172;-90
2021/06/14 00:29:27;;;;;;;8.18;3.53;;;;;;;;;;6192382;23;20241;-89
2021/06/14 00:32:32;;;;;;;11.35;3.47;;;;;;;;;;6192060;23;20171;-89
2021/06/14 00:35:38;;;;;;;9.38;3.28;;;;;;;;;;6192671;23;20175;-89
2021/06/14 00:38:44;;;;;;;5.45;3.47;;;;;;;;;;6191476;23;20175;-90
2021/06/14 00:41:49;;;;;;;9.70;4.07;;;;;;;;;;6190480;23;20173;-90
2021/06/14 00:44:56;;;;;;;8.68;3.47;;;;;;;;;;6190921;22;20172;-90
2021/06/14 00:48:01;;;;;;;14.15;4.57;;;;;;;;;;6190229;22;20168;-89
2021/06/14 00:51:07;;;;;;;10.75;3.58;;;;;;;;;;6191322;23;20171;-87
2021/06/14 00:54:12;;;;;;;11.32;3.42;;;;;;;;;;6191357;23;20218;-88
2021/06/14 00:57:17;;;;;;;8.80;3.60;;;;;;;;;;6190511;23;20286;-90
2021/06/14 01:00:25;;;;;;;8.70;3.53;;;;;;;;;;6190797;23;20187;-89
2021/06/14 01:03:38;;;;;;;9.80;3.53;;;;;;;;;;6190636;23;20192;-89
2021/06/14 01:06:45;;;;;;;7.35;3.70;;;;;;;;;;6190932;23;20209;-89
2021/06/14 01:09:51;;;;;;;8.57;3.72;;;;;;;;;;6190788;23;20195;-89
2021/06/14 01:13:07;;;;;;;10.57;4.00;;;;;;;;;;6190090;23;20172;-90
2021/06/14 01:16:26;;;;;;;9.02;4.28;;;;;;;;;;6190109;23;20176;-92
2021/06/14 01:19:49;;;;;;;10.23;4.40;;;;;;;;;;6190877;23;20160;-90
2021/06/14 01:23:12;;;;;;;13.20;4.05;;;;;;;;;;6190921;23;20242;-90
2021/06/14 01:26:20;;;;;;;15.20;3.80;;;;;;;;;;6190683;23;20172;-90
2021/06/14 01:29:27;;;;;;;11.18;4.03;;;;;;;;;;6189459;23;20195;-89
2021/06/14 01:32:33;;;;;;;7.85;4.13;;;;;;;;;;6189559;23;20172;-90
2021/06/14 01:35:39;;;;;;;9.30;4.38;;;;;;;;;;6190310;23;20172;-89
2021/06/14 01:38:48;;;;;;;13.40;4.70;;;;;;;;;;6190452;23;20469;-89
2021/06/14 01:41:56;;;;;;;11.30;4.80;;;;;;;;;;6188971;23;20175;-89
2021/06/14 01:45:04;;;;;;;9.27;4.18;;;;;;;;;;6190304;23;20594;-89
2021/06/14 01:48:11;;;;;;;13.07;4.75;;;;;;;;;;6190999;22;20167;-91
2021/06/14 01:51:21;;;;;;;9.35;4.30;;;;;;;;;;6190094;23;20183;-89
2021/06/14 01:54:28;;;;;;;7.97;4.25;;;;;;;;;;6190385;23;20168;-88
2021/06/14 01:57:41;;;;;;;11.52;4.60;;;;;;;;;;6189546;23;20184;-89
2021/06/14 02:01:01;;;;;;;11.90;4.35;;;;;;;;;;6189805;23;20294;-90
2021/06/14 02:04:13;;;;;;;10.82;4.90;;;;;;;;;;6189317;23;20172;-88
2021/06/14 02:07:44;;;;;;;10.02;4.55;;;;;;;;;;6188466;23;20175;-89
2021/06/14 02:10:50;;;;;;;15.85;5.47;;;;;;;;;;6189071;23;20191;-89
2021/06/14 02:13:56;;;;;;;11.38;4.32;;;;;;;;;;6189584;23;20179;-89
2021/06/14 02:17:05;;;;;;;14.77;4.40;;;;;;;;;;6189744;23;20622;-88
2021/06/14 02:20:12;;;;;;;20.17;4.78;;;;;;;;;;6190561;23;20163;-90
2021/06/14 02:23:19;;;;;;;11.90;4.28;;;;;;;;;;6188367;23;20279;-90
2021/06/14 02:26:25;;;;;;;8.32;4.38;;;;;;;;;;6189480;23;20171;-89
2021/06/14 02:29:31;;;;;;;13.25;4.72;;;;;;;;;;6190195;23;20206;-89
2021/06/14 02:32:37;;;;;;;11.63;4.35;;;;;;;;;;6189013;23;20167;-89
2021/06/14 02:35:42;;;;;;;8.45;4.20;;;;;;;;;;6189368;23;20171;-89
2021/06/14 02:38:47;;;;;;;11.68;4.68;;;;;;;;;;6190092;23;20172;-89
2021/06/14 02:41:56;;;;;;;9.32;4.85;;;;;;;;;;6189077;22;20198;-91
2021/06/14 02:45:02;;;;;;;9.40;4.32;;;;;;;;;;6188572;23;20168;-90
2021/06/14 02:48:09;;;;;;;15.13;4.95;;;;;;;;;;6189688;23;20172;-89
2021/06/14 02:51:16;;;;;;;14.38;5.18;;;;;;;;;;6189657;23;20294;-90
2021/06/14 02:54:25;;;;;;;15.90;4.85;;;;;;;;;;6189483;23;20176;-88
2021/06/14 02:57:32;;;;;;;10.85;5.03;;;;;;;;;;6189726;22;20611;-89
2021/06/14 03:00:38;;;;;;;10.02;4.45;;;;;;;;;;6188008;23;20725;-89
2021/06/14 03:03:48;;;;;;;11.57;5.28;;;;;;;;;;6188425;22;20665;-90
2021/06/14 03:06:57;;;;;;;11.43;4.22;;;;;;;;;;6189013;23;20172;-90
2021/06/14 03:10:06;;;;;;;10.15;4.88;;;;;;;;;;6191224;23;20254;-90
2021/06/14 03:13:12;;;;;;;9.50;4.55;;;;;;;;;;6190855;23;20175;-89
2021/06/14 03:16:18;;;;;;;6.45;4.07;;;;;;;;;;6189599;23;20171;-90
2021/06/14 03:19:26;;;;;;;8.77;4.60;;;;;;;;;;6190652;23;20167;-88
2021/06/14 03:22:39;;;;;;;12.63;4.90;;;;;;;;;;6190733;23;20171;-90
2021/06/14 03:25:44;;;;;;;9.88;4.20;;;;;;;;;;6190650;23;20175;-89
2021/06/14 03:28:50;;;;;;;10.20;4.53;;;;;;;;;;6190238;23;20171;-86
2021/06/14 03:31:57;;;;;;;9.23;4.60;;;;;;;;;;6189892;23;20179;-89
2021/06/14 03:35:04;;;;;;;10.52;4.55;;;;;;;;;;6190807;23;20171;-89
2021/06/14 03:38:10;;;;;;;12.70;4.85;;;;;;;;;;6190948;23;20172;-88
2021/06/14 03:41:16;;;;;;;11.57;4.70;;;;;;;;;;6190815;23;20168;-90
2021/06/14 03:44:22;;;;;;;12.60;4.97;;;;;;;;;;6190076;23;20172;-88
2021/06/14 03:47:28;;;;;;;7.75;4.22;;;;;;;;;;6188749;23;20227;-88
2021/06/14 03:50:34;;;;;;;9.03;4.70;;;;;;;;;;6190769;23;20180;-88
2021/06/14 03:53:39;;;;;;;13.95;4.88;;;;;;;;;;6190597;23;20171;-89
2021/06/14 03:56:44;;;;;;;10.70;4.20;;;;;;;;;;6190375;23;20172;-89
2021/06/14 03:59:48;;;;;;;9.98;4.40;;;;;;;;;;6190714;23;20615;-88
2021/06/14 04:06:29;;;;;;;9.33;4.90;;;;;;;;;;6191030;23;20191;-89
2021/06/14 04:09:36;;;;;;;10.35;5.20;;;;;;;;;;6191831;23;20212;-89
2021/06/14 04:12:41;;;;;;;11.05;5.03;;;;;;;;;;6190673;23;20171;-90
2021/06/14 04:15:46;;;;;;;11.00;4.68;;;;;;;;;;6191441;23;20192;-89
2021/06/14 04:18:51;;;;;;;10.25;4.10;;;;;;;;;;6191220;23;20194;-89
2021/06/14 04:21:58;;;;;;;8.57;4.85;;;;;;;;;;6190390;23;20495;-91
2021/06/14 04:25:03;;;;;;;12.43;4.95;;;;;;;;;;6191627;23;20167;-89
2021/06/14 04:28:08;;;;;;;8.27;4.20;;;;;;;;;;6192202;23;20242;-89
2021/06/14 04:31:14;;;;;;;8.55;4.65;;;;;;;;;;6192382;23;20263;-90
2021/06/14 04:34:19;;;;;;;10.88;4.68;;;;;;;;;;6190843;22;20242;-90
2021/06/14 04:37:26;;;;;;;9.73;4.53;;;;;;;;;;6190713;23;20206;-88
2021/06/14 04:41:03;;;;;;;10.25;4.88;;;;;;;;;;6189163;23;20604;-89
2021/06/14 04:44:08;;;;;;;9.77;4.07;;;;;;;;;;6190989;23;20246;-88
2021/06/14 04:47:12;;;;;;;10.27;4.25;;;;;;;;;;6190193;23;20168;-87
2021/06/14 04:50:18;;;;;;;11.88;4.78;;;;;;;;;;6191171;23;20195;-87
2021/06/14 04:53:26;;;;;;;6.43;4.30;;;;;;;;;;6190299;23;20179;-87
2021/06/14 04:56:31;;;;;;;12.10;4.43;;;;;;;;;;6190728;23;20250;-88
2021/06/14 04:59:38;;;;;;;11.77;5.45;;;;;;;;;;6190822;23;20168;-88
2021/06/14 05:02:43;;;;;;;10.60;4.60;;;;;;;;;;6190498;23;20194;-89
2021/06/14 05:05:48;;;;;;;10.30;4.90;;;;;;;;;;6191537;22;20302;-89
2021/06/14 05:08:55;;;;;;;15.18;5.53;;;;;;;;;;6192136;23;20171;-87
2021/06/14 05:12:00;;;;;;;11.63;4.97;;;;;;;;;;6191216;22;20245;-89
2021/06/14 05:15:06;;;;;;;15.52;4.80;;;;;;;;;;6192029;23;20187;-89
2021/06/14 05:18:11;;;;;;;12.02;4.63;;;;;;;;;;6194009;22;20202;-88
2021/06/14 06:49:17;;;;;;;11.73;2.85;;;;;;;;;;6250897;22;20196;-90
2021/06/14 06:52:22;;;;;;;12.88;3.08;;;;;;;;;;6308270;22;20409;-88
2021/06/14 06:55:31;;;;;;;9.70;3.10;;;;;;;;;;6306331;22;20161;-88
2021/06/14 06:58:36;;;;;;;9.27;2.67;;;;;;;;;;6305132;22;20174;-90
2021/06/14 07:01:41;;;;;;;6.43;2.38;;;;;;;;;;6306169;22;20260;-89
2021/06/14 07:04:48;;;;;;;9.43;2.45;;;;;;;;;;6306638;22;20174;-88
2021/06/14 07:07:53;;;;;;;10.38;2.90;;;;;;;;;;6308095;22;20153;-89
2021/06/14 07:11:00;;;;;;;9.25;2.90;;;;;;;;;;6310521;22;20197;-88
2021/06/14 07:14:05;;;;;;;9.55;2.80;;;;;;;;;;6289066;22;20213;-89
2021/06/14 07:17:11;;;;;;;8.50;2.97;;;;;;;;;;6304546;22;20162;-89
2021/06/14 07:20:18;;;;;;;10.35;2.90;;;;;;;;;;6307979;22;20261;-89
2021/06/14 07:23:23;;;;;;;9.95;3.00;;;;;;;;;;6302932;22;20228;-89
2021/06/14 07:26:29;;;;;;;12.85;3.10;;;;;;;;;;6307296;22;20643;-88
2021/06/14 07:29:34;;;;;;;8.45;2.45;;;;;;;;;;6305749;22;20169;-88
2021/06/14 10:43:28;;;;;;;11.57;3.03;;;;;;;;;;6269585;22;20213;-90
2021/06/14 10:46:36;;;;;;;5.63;2.80;;;;;;;;;;6323314;22;20188;-91
2021/06/14 12:33:11;;;;;;;7.88;2.78;;;;;;;;;;6159765;22;20195;-87
2021/06/14 12:36:18;;;;;;;7.55;2.83;;;;;;;;;;6284681;22;20226;-88
2021/06/14 12:39:23;;;;;;;5.45;2.50;;;;;;;;;;6283732;22;20215;-89
2021/06/14 12:42:29;;;;;;;8.18;3.30;;;;;;;;;;6264253;22;20584;-89
2021/06/14 12:45:34;;;;;;;9.45;2.85;;;;;;;;;;6281278;22;20169;-88
2021/06/14 12:48:40;;;;;;;5.30;2.53;;;;;;;;;;6282596;22;20191;-86
2021/06/14 12:51:45;;;;;;;8.57;3.22;;;;;;;;;;6283515;22;20192;-89
2021/06/14 12:54:51;;;;;;;8.45;2.60;;;;;;;;;;6284446;22;20176;-90
2021/06/14 12:57:56;;;;;;;8.30;2.80;;;;;;;;;;6283490;22;20244;-89
2021/06/14 13:01:04;;;;;;;9.73;2.70;;;;;;;;;;6284805;22;20192;-89
2021/06/14 13:04:11;;;;;;;4.43;2.50;;;;;;;;;;6285962;22;20494;-90
2021/06/14 13:07:17;;;;;;;7.50;2.95;;;;;;;;;;6284313;22;20244;-89
2021/06/14 13:10:24;;;;;;;6.72;2.50;;;;;;;;;;6284303;22;20173;-90
2021/06/14 13:13:31;;;;;;;5.78;2.65;;;;;;;;;;6282105;22;20890;-88
2021/06/14 13:16:50;;;;;;;7.63;3.80;;;;;;;;;;6283098;22;20193;-88
2021/06/14 13:19:57;;;;;;;4.93;2.33;;;;;;;;;;6283610;22;20499;-88
2021/06/14 13:23:12;;;;;;;12.32;2.88;;;;;;;;;;6283079;22;20161;-87
2021/06/14 13:26:17;;;;;;;6.85;2.90;;;;;;;;;;6284284;22;20157;-89
2021/06/14 13:29:25;;;;;;;7.95;3.20;;;;;;;;;;6282536;22;20173;-88
2021/06/14 13:32:50;;;;;;;8.93;2.88;;;;;;;;;;6283245;22;20208;-89
2021/06/14 13:35:58;;;;;;;10.32;3.10;;;;;;;;;;6283306;22;20212;-88
2021/06/14 13:39:05;;;;;;;7.15;2.78;;;;;;;;;;6282827;22;20705;-89
2021/06/14 13:42:12;;;;;;;5.25;2.60;;;;;;;;;;6283850;22;20239;-90
2021/06/14 13:45:18;;;;;;;8.30;2.72;;;;;;;;;;6283529;22;20169;-90
2021/06/14 13:48:24;;;;;;;6.95;2.78;;;;;;;;;;6283119;22;20240;-90
2021/06/14 13:51:31;;;;;;;10.13;3.05;;;;;;;;;;6285299;22;20217;-89
2021/06/14 13:54:37;;;;;;;7.10;2.63;;;;;;;;;;6284287;22;20219;-90
2021/06/14 13:57:54;;;;;;;5.47;2.75;;;;;;;;;;6288081;22;20168;-88
2021/06/14 14:01:06;;;;;;;5.72;2.60;;;;;;;;;;6286127;22;20612;-89
2021/06/14 14:04:11;;;;;;;8.40;2.88;;;;;;;;;;6286791;22;20169;-88
2021/06/14 14:07:17;;;;;;;9.50;3.10;;;;;;;;;;6288734;22;20583;-89
2021/06/14 14:10:23;;;;;;;9.18;3.03;;;;;;;;;;6286154;22;20182;-89
2021/06/14 14:13:28;;;;;;;7.28;3.20;;;;;;;;;;6287250;22;20161;-88
2021/06/14 14:16:34;;;;;;;10.73;3.60;;;;;;;;;;6283879;22;20247;-87
2021/06/14 14:19:47;;;;;;;9.15;3.50;;;;;;;;;;6267129;22;20255;-88
2021/06/14 14:22:55;;;;;;;8.05;2.90;;;;;;;;;;6289516;22;20216;-87
2021/06/14 14:26:00;;;;;;;6.95;2.75;;;;;;;;;;6287976;22;20169;-89
2021/06/14 14:29:09;;;;;;;9.32;2.80;;;;;;;;;;6285865;22;20189;-86
2021/06/14 14:32:14;;;;;;;6.40;2.58;;;;;;;;;;6284798;22;20243;-87
2021/06/14 14:35:26;;;;;;;7.05;2.88;;;;;;;;;;6283661;22;20204;-88
2021/06/14 14:38:35;;;;;;;9.35;2.78;;;;;;;;;;6282732;22;20173;-88
2021/06/14 14:41:45;;;;;;;7.25;2.67;;;;;;;;;;6284220;22;20273;-89
2021/06/14 14:44:50;;;;;;;11.70;2.80;;;;;;;;;;6286284;22;20168;-88
2021/06/14 14:47:57;;;;;;;8.73;3.00;;;;;;;;;;6287437;22;20168;-87
2021/06/14 14:51:02;;;;;;;6.93;2.60;;;;;;;;;;6286050;22;20188;-89
2021/06/14 14:54:09;;;;;;;7.10;2.90;;;;;;;;;;6287860;22;20280;-90
2021/06/14 14:57:14;;;;;;;6.95;3.05;;;;;;;;;;6288187;22;20170;-88
2021/06/14 15:00:19;;;;;;;7.75;2.90;;;;;;;;;;6289614;22;20651;-89
2021/06/14 15:03:24;;;;;;;7.00;2.40;;;;;;;;;;6288646;22;20170;-90
2021/06/14 15:06:29;;;;;;;8.43;3.17;;;;;;;;;;6289770;22;20164;-89
2021/06/14 15:09:35;;;;;;;6.32;2.95;;;;;;;;;;6288774;22;20166;-89
2021/06/14 15:12:41;;;;;;;8.07;2.90;;;;;;;;;;6284789;22;20309;-89
2021/06/14 15:15:46;;;;;;;9.02;3.20;;;;;;;;;;6288809;22;20176;-87
2021/06/14 15:18:51;;;;;;;11.75;3.55;;;;;;;;;;6285744;22;20172;-89
2021/06/14 15:21:56;;;;;;;9.85;3.60;;;;;;;;;;6285081;22;20248;-85
2021/06/14 15:25:03;;;;;;;8.70;2.92;;;;;;;;;;6284087;22;20304;-88
2021/06/14 15:28:08;;;;;;;9.75;3.30;;;;;;;;;;6283616;22;20244;-88
2021/06/14 15:31:13;;;;;;;13.18;2.90;;;;;;;;;;6282629;22;20193;-87
2021/06/14 15:34:18;;;;;;;9.43;3.17;;;;;;;;;;6283736;22;20197;-89
2021/06/14 15:37:23;;;;;;;7.60;2.83;;;;;;;;;;6284787;22;20173;-88
2021/06/14 15:40:36;;;;;;;11.73;3.80;;;;;;;;;;6286260;22;20220;-89
2021/06/14 15:43:41;;;;;;;6.80;3.08;;;;;;;;;;6285995;22;20696;-89
2021/06/14 15:46:48;;;;;;;8.50;3.20;;;;;;;;;;6284538;22;20169;-88
2021/06/14 15:49:53;;;;;;;8.50;3.03;;;;;;;;;;6283788;22;20639;-89
2021/06/14 15:52:58;;;;;;;6.43;3.10;;;;;;;;;;6284781;22;20209;-89
2021/06/14 15:56:05;;;;;;;7.50;3.30;;;;;;;;;;6285606;22;20224;-88
2021/06/14 15:59:10;;;;;;;9.45;3.17;;;;;;;;;;6285646;22;20244;-88
2021/06/14 16:02:15;;;;;;;5.45;2.85;;;;;;;;;;6286403;22;20207;-88
2021/06/14 16:05:21;;;;;;;6.70;2.95;;;;;;;;;;6291054;22;20169;-88
2021/06/14 16:08:26;;;;;;;8.07;3.63;;;;;;;;;;6285363;22;20173;-88
2021/06/14 16:11:33;;;;;;;6.40;2.80;;;;;;;;;;6286781;22;20194;-89
2021/06/14 16:14:38;;;;;;;7.65;2.72;;;;;;;;;;6289311;22;20166;-89
2021/06/14 16:17:43;;;;;;;10.70;2.90;;;;;;;;;;6285401;22;20616;-89
2021/06/14 16:20:48;;;;;;;10.38;2.72;;;;;;;;;;6286171;22;20512;-89
2021/06/14 16:23:53;;;;;;;9.45;3.33;;;;;;;;;;6284644;22;20177;-89
2021/06/14 16:27:00;;;;;;;7.93;2.80;;;;;;;;;;6286122;22;20174;-90
2021/06/14 16:30:05;;;;;;;9.25;3.13;;;;;;;;;;6284575;22;20285;-88
2021/06/14 16:33:10;;;;;;;6.95;3.17;;;;;;;;;;6285275;22;20285;-89
2021/06/14 16:36:15;;;;;;;8.95;3.25;;;;;;;;;;6284146;22;20169;-88
2021/06/14 16:39:20;;;;;;;9.35;2.92;;;;;;;;;;6281327;22;20300;-89
2021/06/14 16:42:27;;;;;;;9.52;3.00;;;;;;;;;;6282783;22;20185;-88
2021/06/14 16:45:32;;;;;;;11.80;3.45;;;;;;;;;;6284983;22;20166;-88
2021/06/14 16:48:37;;;;;;;7.38;2.97;;;;;;;;;;6284685;22;20256;-89
2021/06/14 16:51:42;;;;;;;7.55;3.33;;;;;;;;;;6285451;22;20235;-89
2021/06/14 16:54:47;;;;;;;8.13;3.13;;;;;;;;;;6283750;22;20174;-89
2021/06/14 16:57:54;;;;;;;11.35;3.70;;;;;;;;;;6285631;22;20155;-89
2021/06/14 17:01:00;;;;;;;6.40;2.90;;;;;;;;;;6285370;22;20168;-89
2021/06/14 17:04:05;;;;;;;9.77;3.40;;;;;;;;;;6286115;22;20296;-89
2021/06/14 17:07:10;;;;;;;8.00;2.92;;;;;;;;;;6283433;22;20173;-89
2021/06/14 17:10:17;;;;;;;10.02;2.90;;;;;;;;;;6284556;22;20165;-88
2021/06/14 17:13:24;;;;;;;10.63;3.17;;;;;;;;;;6284445;22;20217;-88
2021/06/14 17:16:29;;;;;;;10.35;2.83;;;;;;;;;;6284181;22;20515;-88
2021/06/14 17:19:34;;;;;;;8.45;2.90;;;;;;;;;;6285585;22;20531;-89
2021/06/14 17:22:39;;;;;;;27.95;13.45;;;;;;;;;;6266425;22;20161;-88
2021/06/14 17:25:44;;;;;;;7.65;3.47;;;;;;;;;;6282938;22;20492;-88
2021/06/14 17:28:51;;;;;;;9.63;3.03;;;;;;;;;;6281850;22;20216;-88
2021/06/14 17:31:56;;;;;;;7.45;2.80;;;;;;;;;;6285443;22;20197;-89
2021/06/14 17:35:01;;;;;;;8.35;2.72;;;;;;;;;;6282338;22;20189;-87
2021/06/14 17:38:06;;;;;;;9.80;5.00;;;;;;;;;;6282890;22;20727;-88
2021/06/14 17:41:12;;;;;;;8.88;4.30;;;;;;;;;;6284276;22;20172;-89
2021/06/14 17:44:20;;;;;;;12.23;3.72;;;;;;;;;;6285474;22;20173;-90
2021/06/14 17:47:26;;;;;;;11.48;3.42;;;;;;;;;;6283584;22;20165;-87
2021/06/14 17:50:31;;;;;;;7.78;2.97;;;;;;;;;;6283898;22;20178;-89
2021/06/14 17:53:37;;;;;;;13.23;2.92;;;;;;;;;;6283550;22;20216;-89
2021/06/14 17:56:42;;;;;;;8.32;2.95;;;;;;;;;;6283233;22;20172;-89
2021/06/14 17:59:48;;;;;;;7.45;3.17;;;;;;;;;;6285411;22;20186;-89
2021/06/14 18:02:55;;;;;;;10.45;3.05;;;;;;;;;;6283050;22;20531;-88
2021/06/14 18:06:00;;;;;;;8.88;2.60;;;;;;;;;;6282608;22;20174;-88
2021/06/14 18:09:06;;;;;;;9.07;3.15;;;;;;;;;;6284471;22;20613;-87
2021/06/14 18:12:14;;;;;;;11.10;3.50;;;;;;;;;;6282348;22;20197;-87
2021/06/14 18:15:23;;;;;;;9.38;3.47;;;;;;;;;;6287271;22;20174;-89
2021/06/14 18:18:28;;;;;;;10.55;3.60;;;;;;;;;;6282451;22;20238;-89
2021/06/14 18:21:33;;;;;;;9.52;3.50;;;;;;;;;;6281707;22;20170;-90
2021/06/14 18:24:38;;;;;;;6.60;3.15;;;;;;;;;;6283097;22;20735;-88
2021/06/14 18:27:44;;;;;;;7.50;3.47;;;;;;;;;;6283887;22;20229;-89
2021/06/14 18:30:53;;;;;;;9.88;3.80;;;;;;;;;;6283516;22;20248;-89
2021/06/14 18:33:59;;;;;;;8.85;3.70;;;;;;;;;;6283063;22;20209;-88
2021/06/14 18:37:05;;;;;;;7.68;3.40;;;;;;;;;;6285546;22;20212;-88
2021/06/14 18:40:10;;;;;;;7.55;3.60;;;;;;;;;;6282652;22;20181;-86
2021/06/14 18:43:15;;;;;;;8.82;3.10;;;;;;;;;;6283675;22;20170;-88
2021/06/14 18:46:22;;;;;;;9.07;3.42;;;;;;;;;;6284945;22;20823;-88
2021/06/14 18:49:27;;;;;;;9.75;3.50;;;;;;;;;;6286525;22;20281;-89
2021/06/14 18:52:32;;;;;;;10.38;3.63;;;;;;;;;;6283997;22;20260;-88
2021/06/14 18:55:37;;;;;;;9.48;4.18;;;;;;;;;;6285640;22;20173;-90
2021/06/14 18:58:42;;;;;;;7.78;3.75;;;;;;;;;;6287042;22;20214;-90
2021/06/14 19:01:48;;;;;;;9.52;4.30;;;;;;;;;;6283639;22;20552;-88
2021/06/14 19:04:53;;;;;;;9.55;4.40;;;;;;;;;;6284795;22;20165;-88
2021/06/14 19:07:59;;;;;;;12.90;4.85;;;;;;;;;;6283350;22;20446;-87
2021/06/14 19:11:04;;;;;;;16.50;6.13;;;;;;;;;;6283759;22;20170;-88
2021/06/14 19:14:09;;;;;;;10.55;4.20;;;;;;;;;;6283016;22;20194;-88
2021/06/14 19:17:16;;;;;;;10.43;4.10;;;;;;;;;;6283389;22;20253;-89
2021/06/14 19:20:22;;;;;;;12.90;4.90;;;;;;;;;;6284468;22;20218;-88
2021/06/14 19:23:27;;;;;;;11.40;4.40;;;;;;;;;;6282387;22;20178;-89
2021/06/14 19:26:32;;;;;;;15.10;4.40;;;;;;;;;;6282709;22;20502;-88
2021/06/14 19:29:40;;;;;;;12.65;3.83;;;;;;;;;;6281432;22;20641;-88
2021/06/14 19:32:47;;;;;;;11.85;4.45;;;;;;;;;;6281238;22;20190;-87
2021/06/14 19:35:52;;;;;;;9.77;4.25;;;;;;;;;;6282190;22;20166;-88
2021/06/14 19:38:57;;;;;;;10.65;4.65;;;;;;;;;;6280839;22;20299;-88
2021/06/14 19:42:01;;;;;;;10.93;4.13;;;;;;;;;;6280915;22;20170;-87
2021/06/14 19:45:08;;;;;;;9.07;4.22;;;;;;;;;;6281597;22;20169;-88
2021/06/14 19:48:14;;;;;;;14.35;4.57;;;;;;;;;;6283663;22;20224;-87
2021/06/14 19:51:20;;;;;;;16.42;4.72;;;;;;;;;;6284329;22;20170;-88
2021/06/14 19:54:25;;;;;;;10.60;4.55;;;;;;;;;;6284368;22;20172;-87
2021/06/14 19:57:30;;;;;;;10.63;3.95;;;;;;;;;;6287665;22;20304;-88
2021/06/14 20:00:35;;;;;;;12.10;4.18;;;;;;;;;;6286424;22;20165;-87
2021/06/14 20:03:43;;;;;;;9.43;4.22;;;;;;;;;;6284717;22;20628;-88
2021/06/14 20:06:48;;;;;;;11.27;4.45;;;;;;;;;;6284961;22;20459;-87
2021/06/14 20:09:52;;;;;;;9.70;4.40;;;;;;;;;;6284335;22;20170;-88
2021/06/14 20:12:57;;;;;;;9.15;4.32;;;;;;;;;;6283284;22;20253;-88
2021/06/14 20:16:02;;;;;;;12.98;4.43;;;;;;;;;;6282881;22;20165;-88
2021/06/14 20:19:08;;;;;;;8.57;4.45;;;;;;;;;;6285826;22;20289;-88
2021/06/14 20:22:13;;;;;;;12.95;5.13;;;;;;;;;;6283041;22;20173;-88
2021/06/14 20:25:19;;;;;;;11.05;4.55;;;;;;;;;;6284608;22;20624;-88
2021/06/14 20:28:24;;;;;;;10.50;4.90;;;;;;;;;;6284600;22;20629;-86
2021/06/14 20:31:29;;;;;;;11.07;4.60;;;;;;;;;;6284155;22;20216;-87
2021/06/14 20:34:35;;;;;;;11.50;5.10;;;;;;;;;;6284617;22;20197;-88
2021/06/14 20:37:40;;;;;;;14.88;5.05;;;;;;;;;;6284359;22;20170;-88
2021/06/14 20:40:44;;;;;;;9.38;4.90;;;;;;;;;;6283586;22;20620;-88
2021/06/14 20:43:50;;;;;;;12.25;5.40;;;;;;;;;;6282744;22;20769;-88
2021/06/14 20:46:57;;;;;;;10.65;4.85;;;;;;;;;;6283885;22;20221;-88
2021/06/14 20:50:03;;;;;;;12.02;5.55;;;;;;;;;;6284453;22;20493;-88
2021/06/14 20:53:08;;;;;;;15.00;5.60;;;;;;;;;;6284103;22;20250;-87
2021/06/14 20:56:13;;;;;;;14.25;6.05;;;;;;;;;;6286688;22;20257;-87
2021/06/14 20:59:18;;;;;;;16.48;6.47;;;;;;;;;;6285253;22;20671;-87
2021/06/14 21:02:23;;;;;;;12.73;5.95;;;;;;;;;;6284337;22;20177;-87
2021/06/14 21:05:33;;;;;;;17.23;7.15;;;;;;;;;;6288031;22;20173;-88
2021/06/14 21:08:52;;;;;;;15.15;7.28;;;;;;;;;;6288109;22;20212;-88
2021/06/14 21:11:57;;;;;;;14.73;6.30;;;;;;;;;;6288158;22;20198;-87
2021/06/14 21:15:02;;;;;;;13.85;6.18;;;;;;;;;;6285114;22;20509;-87
2021/06/14 21:18:07;;;;;;;18.95;6.45;;;;;;;;;;6285408;22;20181;-87
2021/06/14 21:21:14;;;;;;;12.77;6.57;;;;;;;;;;6283218;22;20177;-87
2021/06/14 21:24:20;;;;;;;16.15;6.30;;;;;;;;;;6284785;22;20228;-89
2021/06/14 21:27:25;;;;;;;13.45;6.13;;;;;;;;;;6283812;22;20193;-87
2021/06/14 21:30:30;;;;;;;14.10;5.57;;;;;;;;;;6285994;22;20613;-85
2021/06/14 21:33:35;;;;;;;16.48;6.07;;;;;;;;;;6285392;22;20205;-89
2021/06/14 21:36:41;;;;;;;12.52;5.60;;;;;;;;;;6285067;22;20174;-88
2021/06/14 21:39:46;;;;;;;13.68;5.32;;;;;;;;;;6283415;22;20671;-89
2021/06/14 21:42:51;;;;;;;14.57;6.03;;;;;;;;;;6282858;22;20238;-90
2021/06/14 21:45:59;;;;;;;16.35;5.88;;;;;;;;;;6284015;22;20174;-89
2021/06/14 21:49:04;;;;;;;13.88;5.70;;;;;;;;;;6284136;22;20169;-87
2021/06/14 21:52:12;;;;;;;12.02;5.63;;;;;;;;;;6283857;22;20285;-88
2021/06/14 21:55:17;;;;;;;11.90;5.82;;;;;;;;;;6283523;22;20201;-88
2021/06/14 21:58:22;;;;;;;11.23;6.00;;;;;;;;;;6282365;22;20240;-88
2021/06/14 22:01:32;;;;;;;12.15;6.03;;;;;;;;;;6286108;22;20289;-88
2021/06/14 22:04:38;;;;;;;15.95;6.53;;;;;;;;;;6288632;22;20238;-89
2021/06/14 22:07:45;;;;;;;17.13;6.47;;;;;;;;;;6285407;22;20154;-88
2021/06/14 22:10:53;;;;;;;22.75;10.20;;;;;;;;;;6287206;22;20216;-89
2021/06/14 22:13:58;;;;;;;13.02;6.70;;;;;;;;;;6286050;22;20192;-88
2021/06/14 22:17:04;;;;;;;17.88;6.60;;;;;;;;;;6284294;22;20501;-88
2021/06/14 22:20:10;;;;;;;13.52;6.03;;;;;;;;;;6284597;22;20576;-87
2021/06/14 22:23:16;;;;;;;12.05;6.47;;;;;;;;;;6285723;22;20291;-87
2021/06/14 22:26:21;;;;;;;13.85;6.63;;;;;;;;;;6284904;22;20170;-87
2021/06/14 22:29:26;;;;;;;16.42;6.32;;;;;;;;;;6285004;22;20169;-88
2021/06/14 22:32:31;;;;;;;12.25;6.05;;;;;;;;;;6284063;22;20166;-86
2021/06/14 22:35:35;;;;;;;14.75;5.85;;;;;;;;;;6285446;22;20165;-87
2021/06/14 22:38:42;;;;;;;15.18;6.45;;;;;;;;;;6283974;22;20185;-87
2021/06/14 22:41:47;;;;;;;11.63;5.95;;;;;;;;;;6283657;22;20166;-87
2021/06/14 22:44:52;;;;;;;12.10;5.90;;;;;;;;;;6283745;22;20166;-88
2021/06/14 22:47:58;;;;;;;13.90;6.03;;;;;;;;;;6283890;22;20173;-87
2021/06/14 22:51:03;;;;;;;10.23;5.57;;;;;;;;;;6285120;22;20166;-88
2021/06/14 22:54:09;;;;;;;13.07;6.00;;;;;;;;;;6283195;22;20193;-86
2021/06/14 22:57:14;;;;;;;18.23;6.63;;;;;;;;;;6283707;22;20212;-88
2021/06/14 23:00:22;;;;;;;16.55;6.65;;;;;;;;;;6284622;22;20594;-87
2021/06/14 23:03:27;;;;;;;16.20;6.90;;;;;;;;;;6282938;22;20166;-87
2021/06/14 23:06:32;;;;;;;17.17;7.22;;;;;;;;;;6282940;22;20170;-88
2021/06/14 23:09:38;;;;;;;13.40;6.85;;;;;;;;;;6283305;22;20257;-87
2021/06/14 23:12:44;;;;;;;15.55;6.85;;;;;;;;;;6283651;22;20155;-87
2021/06/14 23:15:49;;;;;;;11.80;6.47;;;;;;;;;;6284314;22;20552;-87
2021/06/14 23:18:54;;;;;;;17.20;7.10;;;;;;;;;;6286735;22;20494;-88
2021/06/14 23:21:59;;;;;;;13.32;6.47;;;;;;;;;;6282730;22;20256;-88
2021/06/14 23:25:06;;;;;;;14.80;7.00;;;;;;;;;;6282777;22;20161;-88
2021/06/14 23:28:11;;;;;;;14.23;7.10;;;;;;;;;;6287117;22;20177;-86
2021/06/14 23:31:17;;;;;;;14.20;6.72;;;;;;;;;;6285579;22;20569;-88
2021/06/14 23:34:21;;;;;;;15.15;6.70;;;;;;;;;;6285225;22;20209;-87
2021/06/14 23:37:27;;;;;;;18.15;7.50;;;;;;;;;;6285374;22;20165;-88
2021/06/14 23:40:33;;;;;;;14.38;6.88;;;;;;;;;;6285240;22;20644;-88
2021/06/14 23:43:38;;;;;;;16.25;6.93;;;;;;;;;;6285330;22;20166;-87
2021/06/14 23:46:44;;;;;;;20.10;7.25;;;;;;;;;;6285594;22;20170;-87
2021/06/14 23:49:49;;;;;;;14.35;6.78;;;;;;;;;;6284618;22;20178;-87
2021/06/14 23:52:54;;;;;;;22.23;7.70;;;;;;;;;;6284547;22;20201;-87
2021/06/14 23:56:01;;;;;;;15.52;7.32;;;;;;;;;;6285268;22;20165;-87
2021/06/14 23:59:06;;;;;;;16.15;6.70;;;;;;;;;;6285025;22;20170;-87
